Time;durP1;ratioP1;P1;durP2;ratioP2;P2;SDS_P1;SDS_P2;PMS_P1;PMS_P2;Temp;Humidity;BMP_temperature;BMP_pressure;BME280_temperature;BME280_humidity;BME280_pressure;Samples;Min_cycle;Max_cycle;Signal;HPM_P1;HPM_P2
2023/01/09 00:01:32;;;;;;;35.50;13.30;;;;;;;0.80;99.44;99180.23;107036;1276;22517;-75
2023/01/09 00:04:01;;;;;;;33.20;13.40;;;;;;;0.76;98.77;99178.80;107114;1276;23150;-74
2023/01/09 00:06:29;;;;;;;27.60;11.70;;;;;;;0.70;99.10;99180.92;107487;1276;22640;-75
2023/01/09 00:08:58;;;;;;;31.20;11.90;;;;;;;0.67;98.89;99181.56;107872;1276;22518;-75
2023/01/09 00:11:29;;;;;;;25.10;10.20;;;;;;;0.64;99.79;99184.41;107901;1276;22585;-76
2023/01/09 00:13:57;;;;;;;26.60;10.40;;;;;;;0.62;99.96;99186.43;107229;1276;22578;-75
2023/01/09 00:16:25;;;;;;;30.50;11.40;;;;;;;0.62;99.80;99181.66;107244;1276;23931;-74
2023/01/09 00:18:54;;;;;;;35.80;12.40;;;;;;;0.62;99.43;99180.61;107121;1266;22649;-75
2023/01/09 00:21:25;;;;;;;27.90;10.30;;;;;;;0.63;99.43;99183.54;107251;1276;22675;-75
2023/01/09 00:23:56;;;;;;;37.40;11.60;;;;;;;0.63;99.20;99183.19;107255;1276;22531;-75
2023/01/09 00:26:25;;;;;;;29.70;10.40;;;;;;;0.63;99.28;99185.05;107262;1269;24894;-75
2023/01/09 00:28:53;;;;;;;25.90;11.00;;;;;;;0.60;99.31;99188.95;107271;1276;24244;-74
2023/01/09 00:31:21;;;;;;;28.40;10.10;;;;;;;0.63;99.75;99183.53;107256;1276;24265;-75
2023/01/09 00:33:58;;;;;;;29.10;10.50;;;;;;;0.69;100.00;99175.28;107252;1276;25513;-75
2023/01/09 00:36:27;;;;;;;24.50;9.10;;;;;;;0.73;99.99;99171.10;107260;1276;26542;-75
2023/01/09 00:38:56;;;;;;;26.70;9.70;;;;;;;0.78;100.00;99166.54;107273;1276;22530;-74
2023/01/09 00:41:42;;;;;;;23.90;10.20;;;;;;;0.84;100.00;99164.75;107210;1267;22568;-75
2023/01/09 00:44:15;;;;;;;25.10;10.00;;;;;;;0.89;99.98;99164.15;107144;1276;22565;-75
2023/01/09 00:46:54;;;;;;;24.50;9.60;;;;;;;0.91;99.89;99164.01;107233;1276;25409;-75
2023/01/09 00:49:23;;;;;;;23.10;9.80;;;;;;;0.93;99.86;99165.92;110296;1270;22204;-76
2023/01/09 00:51:53;;;;;;;26.80;11.10;;;;;;;0.94;99.53;99170.38;110186;1276;22316;-76
2023/01/09 00:54:22;;;;;;;27.80;10.80;;;;;;;0.94;99.39;99166.11;110307;1276;23045;-76
2023/01/09 00:56:50;;;;;;;25.10;10.70;;;;;;;0.88;98.94;99165.50;110161;1276;22403;-76
2023/01/09 00:59:18;;;;;;;27.60;10.50;;;;;;;0.80;99.01;99169.14;110270;1276;22958;-75
2023/01/09 01:01:47;;;;;;;27.90;11.40;;;;;;;0.82;99.45;99161.31;110315;1264;22127;-75
2023/01/09 01:09:52;;;;;;;23.40;10.60;;;;;;;0.84;100.00;99153.16;110286;1276;22311;-76
2023/01/09 01:12:20;;;;;;;27.80;11.20;;;;;;;0.85;100.00;99154.36;110145;1276;22333;-76
2023/01/09 01:14:52;;;;;;;28.40;10.90;;;;;;;0.84;99.89;99150.25;110303;1276;23066;-76
2023/01/09 01:17:25;;;;;;;25.40;10.80;;;;;;;0.78;99.48;99145.75;110257;1276;22345;-76
2023/01/09 01:19:56;;;;;;;25.40;10.90;;;;;;;0.75;99.43;99143.15;110285;1270;23195;-75
2023/01/09 01:22:24;;;;;;;27.20;10.30;;;;;;;0.72;99.53;99139.16;110262;1276;23050;-76
2023/01/09 01:24:52;;;;;;;25.10;9.60;;;;;;;0.71;99.71;99132.83;110310;1276;22211;-76
2023/01/09 01:27:21;;;;;;;23.40;9.50;;;;;;;0.68;99.26;99132.79;110287;1273;22344;-75
2023/01/09 01:29:49;;;;;;;18.10;7.30;;;;;;;0.64;99.30;99122.66;110296;1276;22169;-75
2023/01/09 01:32:18;;;;;;;20.40;7.90;;;;;;;0.63;99.52;99118.04;110244;1276;22939;-76
2023/01/09 01:34:46;;;;;;;21.20;8.70;;;;;;;0.63;99.33;99118.38;110280;1276;22236;-75
2023/01/09 01:37:15;;;;;;;22.80;9.40;;;;;;;0.62;98.94;99116.31;110263;1274;22197;-76
2023/01/09 01:39:43;;;;;;;22.40;8.60;;;;;;;0.61;98.23;99117.84;110260;1276;22148;-76
2023/01/09 01:42:12;;;;;;;24.20;8.70;;;;;;;0.50;98.21;99106.95;110181;1276;22308;-75
2023/01/09 01:44:58;;;;;;;24.30;10.50;;;;;;;0.49;98.63;99102.14;110033;1276;23046;-75
2023/01/09 01:47:31;;;;;;;26.80;9.80;;;;;;;0.51;99.40;99100.98;110265;1273;22162;-76
2023/01/09 01:50:03;;;;;;;19.60;9.20;;;;;;;0.55;99.31;99100.69;110295;1276;22208;-76
2023/01/09 01:52:36;;;;;;;25.50;9.80;;;;;;;0.51;98.78;99094.34;110054;1273;22333;-75
2023/01/09 01:55:07;;;;;;;27.20;9.50;;;;;;;0.51;98.90;99088.19;110230;1275;22272;-76
2023/01/09 01:57:39;;;;;;;25.80;10.10;;;;;;;0.52;99.03;99082.75;110268;1276;22328;-76
2023/01/09 02:00:08;;;;;;;21.80;8.20;;;;;;;0.53;99.21;99074.75;110142;1276;22243;-76
2023/01/09 02:02:37;;;;;;;30.70;10.00;;;;;;;0.56;99.25;99067.45;107729;1277;22527;-75
2023/01/09 02:05:05;;;;;;;22.50;9.10;;;;;;;0.58;99.42;99069.70;107208;1276;25307;-75
2023/01/09 02:07:34;;;;;;;25.90;9.60;;;;;;;0.64;99.51;99068.08;107289;1276;22557;-75
2023/01/09 02:10:03;;;;;;;27.50;11.70;;;;;;;0.67;99.25;99071.38;107326;1270;22521;-75
2023/01/09 02:12:31;;;;;;;39.20;15.80;;;;;;;0.69;99.05;99062.01;107310;1276;22652;-75
2023/01/09 02:15:12;;;;;;;75.20;23.90;;;;;;;0.66;98.67;99057.01;107579;1276;25638;-75
2023/01/09 02:18:04;;;;;;;31.60;13.20;;;;;;;0.56;98.31;99061.30;107432;1276;22544;-75
2023/01/09 02:20:45;;;;;;;31.80;12.60;;;;;;;0.51;98.62;99064.30;107527;1276;22793;-75
2023/01/09 02:23:38;;;;;;;92.50;28.60;;;;;;;0.48;98.81;99060.34;107668;1276;24428;-75
2023/01/09 02:26:47;;;;;;;27.20;11.70;;;;;;;0.42;98.53;99053.10;107691;1276;23819;-75
2023/01/09 02:29:26;;;;;;;30.10;13.20;;;;;;;0.37;98.69;99048.42;107502;1276;22601;-75
2023/01/09 02:32:19;;;;;;;26.20;11.40;;;;;;;0.32;98.51;99046.46;107247;1276;24252;-75
2023/01/09 02:35:02;;;;;;;23.00;10.40;;;;;;;0.17;96.98;99045.02;107206;1276;22558;-75
2023/01/09 02:37:59;;;;;;;25.70;10.10;;;;;;;-0.02;97.32;99044.58;107092;1276;23961;-74
2023/01/09 02:40:34;;;;;;;25.50;10.10;;;;;;;-0.12;97.43;99048.66;107108;1276;22589;-75
2023/01/09 02:43:04;;;;;;;24.50;9.80;;;;;;;-0.20;98.08;99045.46;107071;1276;24401;-74
2023/01/09 02:45:32;;;;;;;24.20;10.60;;;;;;;-0.24;98.27;99036.36;109635;1276;24262;-75
2023/01/09 02:48:00;;;;;;;26.70;9.80;;;;;;;-0.26;98.67;99029.85;107094;1276;25356;-75
2023/01/09 02:50:40;;;;;;;32.20;10.60;;;;;;;-0.30;98.99;99024.17;107152;1276;22530;-75
2023/01/09 02:53:40;;;;;;;16.90;7.50;;;;;;;-0.34;98.53;99027.33;107189;1276;23760;-75
2023/01/09 02:56:29;;;;;;;39.40;16.80;;;;;;;-0.38;98.04;99015.52;107141;1276;22569;-73
2023/01/09 02:58:57;;;;;;;26.60;11.10;;;;;;;-0.42;97.80;99003.52;107114;1276;22653;-75
2023/01/09 03:01:54;;;;;;;25.80;9.90;;;;;;;-0.40;98.10;98997.08;107152;1276;23841;-75
2023/01/09 03:04:37;;;;;;;25.90;11.00;;;;;;;-0.39;98.55;98997.77;110095;1276;22251;-75
2023/01/09 03:07:29;;;;;;;25.60;10.30;;;;;;;-0.34;98.92;98994.12;110229;1276;22285;-74
2023/01/09 03:10:11;;;;;;;21.50;9.10;;;;;;;-0.29;98.99;98992.00;110247;1276;22253;-75
2023/01/09 03:12:42;;;;;;;19.50;8.60;;;;;;;-0.22;99.48;98994.48;110314;1276;22223;-76
2023/01/09 03:15:13;;;;;;;27.90;9.90;;;;;;;-0.23;98.73;98991.59;110294;1270;22345;-75
2023/01/09 03:17:45;;;;;;;22.50;9.30;;;;;;;-0.20;99.01;98990.08;110230;1276;22208;-76
2023/01/09 03:20:20;;;;;;;19.50;8.00;;;;;;;-0.15;99.41;98995.47;110218;1271;23004;-75
2023/01/09 03:23:00;;;;;;;15.90;7.80;;;;;;;-0.08;99.75;98994.39;110218;1276;23077;-76
2023/01/09 03:25:30;;;;;;;17.00;7.50;;;;;;;-0.04;99.63;98989.31;110111;1276;22288;-76
2023/01/09 03:28:01;;;;;;;21.00;8.10;;;;;;;0.06;99.97;98981.64;110217;1276;23001;-75
2023/01/09 03:30:32;;;;;;;16.40;6.90;;;;;;;0.14;99.96;98984.99;110064;1276;22223;-75
2023/01/09 03:33:04;;;;;;;23.10;9.30;;;;;;;0.19;99.79;98983.71;110195;1276;22832;-76
2023/01/09 03:35:34;;;;;;;21.70;9.40;;;;;;;0.22;99.51;98983.59;110235;1276;23076;-75
2023/01/09 03:38:03;;;;;;;21.70;9.30;;;;;;;0.23;99.46;98981.22;110240;1276;22340;-76
2023/01/09 03:40:34;;;;;;;26.30;11.80;;;;;;;0.18;98.97;98983.70;110256;1276;22203;-75
2023/01/09 03:43:05;;;;;;;20.90;8.50;;;;;;;0.14;99.28;98977.51;110254;1276;22289;-75
2023/01/09 03:45:33;;;;;;;16.30;8.20;;;;;;;0.15;99.26;98971.02;110242;1276;22957;-76
2023/01/09 03:48:02;;;;;;;15.70;8.10;;;;;;;0.11;98.96;98969.96;110268;1276;22373;-76
2023/01/09 03:50:30;;;;;;;16.60;7.40;;;;;;;0.07;98.81;98963.24;110266;1276;22167;-76
2023/01/09 03:52:59;;;;;;;17.00;8.70;;;;;;;-0.00;98.37;98966.55;110255;1276;22333;-75
2023/01/09 03:55:27;;;;;;;16.50;7.80;;;;;;;-0.13;98.11;98971.30;110241;1270;22814;-75
2023/01/09 03:57:56;;;;;;;17.30;7.40;;;;;;;-0.18;98.52;98969.02;110284;1276;22273;-75
2023/01/09 04:00:24;;;;;;;15.60;7.50;;;;;;;-0.18;99.24;98957.92;110293;1276;22330;-75
2023/01/09 04:02:52;;;;;;;15.70;7.30;;;;;;;-0.16;99.44;98957.77;110281;1276;22431;-76
2023/01/09 04:05:21;;;;;;;16.70;8.30;;;;;;;-0.17;99.24;98953.86;110246;1276;22142;-75
2023/01/09 04:07:49;;;;;;;18.60;8.80;;;;;;;-0.24;98.87;98952.90;110227;1276;22325;-76
2023/01/09 04:10:17;;;;;;;22.20;9.80;;;;;;;-0.31;98.68;98949.88;110270;1276;22405;-75
2023/01/09 04:12:46;;;;;;;21.20;9.40;;;;;;;-0.39;98.51;98951.98;110272;1276;22192;-75
2023/01/09 04:15:14;;;;;;;14.30;7.30;;;;;;;-0.44;98.39;98950.70;110255;1276;22930;-75
2023/01/09 04:17:42;;;;;;;16.20;6.90;;;;;;;-0.52;97.72;98944.78;110265;1269;23281;-76
2023/01/09 04:20:10;;;;;;;20.10;8.40;;;;;;;-0.59;97.72;98943.13;110252;1276;22197;-75
2023/01/09 04:22:39;;;;;;;22.40;8.20;;;;;;;-0.66;97.98;98940.63;110257;1262;22275;-75
2023/01/09 04:25:07;;;;;;;19.30;8.00;;;;;;;-0.70;98.18;98940.54;110220;1276;22316;-75
2023/01/09 04:27:36;;;;;;;16.10;7.50;;;;;;;-0.73;98.09;98941.02;110272;1276;22320;-75
2023/01/09 04:30:04;;;;;;;17.20;6.20;;;;;;;-0.74;98.32;98937.06;110218;1270;23463;-75
2023/01/09 04:32:33;;;;;;;19.50;7.80;;;;;;;-0.74;98.63;98934.18;110160;1276;22186;-76
2023/01/09 04:35:01;;;;;;;13.80;6.50;;;;;;;-0.76;98.53;98935.02;110277;1276;22898;-76
2023/01/09 04:37:29;;;;;;;11.40;5.30;;;;;;;-0.81;99.08;98936.45;110250;1276;22387;-75
2023/01/09 04:40:02;;;;;;;12.70;5.70;;;;;;;-0.83;99.00;98924.17;110256;1276;22385;-75
2023/01/09 04:42:33;;;;;;;11.20;5.20;;;;;;;-0.85;99.01;98925.14;110178;1273;22923;-76
2023/01/09 04:45:03;;;;;;;10.40;5.00;;;;;;;-0.88;99.06;98925.77;110211;1276;22339;-76
2023/01/09 04:47:34;;;;;;;11.10;5.20;;;;;;;-0.89;99.07;98928.80;110192;1271;22855;-75
2023/01/09 04:50:03;;;;;;;14.60;6.60;;;;;;;-0.86;99.24;98928.20;110244;1258;22227;-75
2023/01/09 04:52:31;;;;;;;35.30;13.80;;;;;;;-0.85;99.04;98923.28;110216;1276;22352;-76
2023/01/09 04:55:00;;;;;;;33.90;13.20;;;;;;;-0.89;99.38;98919.64;110259;1276;22247;-75
2023/01/09 04:57:28;;;;;;;46.50;16.90;;;;;;;-0.86;99.45;98911.69;110226;1276;22179;-76
2023/01/09 04:59:56;;;;;;;20.20;9.90;;;;;;;-0.92;99.06;98911.41;110269;1276;22346;-76
2023/01/09 05:02:25;;;;;;;16.20;7.90;;;;;;;-0.96;99.13;98907.76;110244;1276;23286;-75
2023/01/09 05:04:53;;;;;;;17.60;8.10;;;;;;;-1.00;99.10;98905.98;110282;1276;22175;-76
2023/01/09 05:07:21;;;;;;;16.20;7.10;;;;;;;-1.06;98.92;98903.83;110196;1276;22182;-76
2023/01/09 05:09:49;;;;;;;30.40;14.10;;;;;;;-1.07;99.16;98900.77;110247;1276;22870;-75
2023/01/09 05:12:17;;;;;;;19.70;10.00;;;;;;;-1.12;98.87;98899.83;110254;1270;22340;-75
2023/01/09 05:14:46;;;;;;;21.70;10.10;;;;;;;-1.19;98.80;98897.98;110266;1264;22202;-76
2023/01/09 05:17:14;;;;;;;16.30;7.90;;;;;;;-1.26;98.99;98903.81;110190;1276;22318;-76
2023/01/09 05:19:44;;;;;;;17.40;7.90;;;;;;;-1.27;99.18;98905.67;110256;1270;22347;-76
2023/01/09 05:22:12;;;;;;;31.40;12.60;;;;;;;-1.29;99.54;98899.84;110246;1265;22226;-75
2023/01/09 05:24:41;;;;;;;45.30;15.10;;;;;;;-1.30;99.35;98895.40;110241;1276;22377;-75
2023/01/09 05:27:09;;;;;;;26.70;11.00;;;;;;;-1.36;99.19;98890.19;110279;1276;22222;-76
2023/01/09 05:29:37;;;;;;;25.70;9.90;;;;;;;-1.41;99.49;98888.73;110251;1276;23018;-75
2023/01/09 05:32:05;;;;;;;25.00;11.50;;;;;;;-1.42;99.58;98885.66;109812;1276;22551;-76
2023/01/09 05:34:34;;;;;;;24.00;9.70;;;;;;;-1.42;99.45;98884.30;107255;1276;25236;-75
2023/01/09 05:37:02;;;;;;;23.20;9.60;;;;;;;-1.42;99.51;98883.45;107191;1265;22539;-75
2023/01/09 05:39:31;;;;;;;13.50;6.50;;;;;;;-1.41;99.69;98885.84;107384;1276;22559;-76
2023/01/09 05:41:59;;;;;;;14.40;6.00;;;;;;;-1.44;99.22;98885.10;107512;1276;22535;-75
2023/01/09 05:44:27;;;;;;;13.20;6.10;;;;;;;-1.48;98.79;98880.45;107462;1276;27633;-75
2023/01/09 05:46:56;;;;;;;11.50;5.70;;;;;;;-1.47;98.89;98882.15;107461;1270;22517;-75
2023/01/09 05:49:24;;;;;;;12.80;6.90;;;;;;;-1.49;99.18;98885.52;107457;1276;22564;-75
2023/01/09 05:51:52;;;;;;;15.40;8.10;;;;;;;-1.44;99.70;98892.77;107359;1276;22560;-75
2023/01/09 05:54:21;;;;;;;18.20;7.60;;;;;;;-1.40;99.45;98897.60;107374;1276;24314;-75
2023/01/09 05:56:49;;;;;;;19.30;7.60;;;;;;;-1.38;99.47;98898.65;107317;1276;25131;-75
2023/01/09 05:59:20;;;;;;;24.10;8.90;;;;;;;-1.35;98.89;98898.36;107242;1276;22515;-75
2023/01/09 06:01:48;;;;;;;18.70;9.10;;;;;;;-1.35;99.29;98900.74;107380;1276;22542;-75
2023/01/09 06:04:16;;;;;;;17.60;7.80;;;;;;;-1.29;99.52;98901.54;107322;1273;22636;-74
2023/01/09 06:06:44;;;;;;;19.60;9.00;;;;;;;-1.30;99.44;98903.39;107326;1276;22577;-74
2023/01/09 06:09:15;;;;;;;19.40;9.20;;;;;;;-1.28;99.70;98905.82;107367;1258;24239;-76
2023/01/09 06:11:43;;;;;;;20.90;8.60;;;;;;;-1.23;99.92;98904.38;107435;1276;22751;-75
2023/01/09 06:14:11;;;;;;;17.00;7.80;;;;;;;-1.16;99.95;98902.46;107350;1273;22645;-75
2023/01/09 06:16:39;;;;;;;22.80;9.30;;;;;;;-1.13;99.97;98897.26;107319;1276;22546;-75
2023/01/09 06:19:08;;;;;;;20.80;9.00;;;;;;;-1.09;99.97;98900.05;107284;1276;22550;-74
2023/01/09 06:21:36;;;;;;;19.20;8.40;;;;;;;-1.04;100.00;98903.87;107169;1276;26523;-75
2023/01/09 06:24:08;;;;;;;17.40;8.50;;;;;;;-0.98;99.97;98909.59;107276;1270;25417;-75
2023/01/09 06:26:36;;;;;;;21.70;10.00;;;;;;;-0.97;100.00;98907.75;110321;1276;23025;-76
2023/01/09 06:29:04;;;;;;;23.60;9.70;;;;;;;-0.96;99.87;98909.30;110262;1276;22892;-76
2023/01/09 06:31:33;;;;;;;26.10;9.50;;;;;;;-0.97;99.86;98911.83;110282;1276;23285;-75
2023/01/09 06:34:01;;;;;;;23.90;9.50;;;;;;;-0.98;99.72;98921.85;110183;1276;23437;-75
2023/01/09 06:36:29;;;;;;;20.90;9.20;;;;;;;-0.93;99.93;98920.41;109132;1276;25300;-75
2023/01/09 06:38:57;;;;;;;19.70;9.20;;;;;;;-0.94;99.61;98916.48;107220;1276;22553;-76
2023/01/09 06:41:28;;;;;;;24.00;9.40;;;;;;;-0.96;99.47;98916.61;107209;1271;22522;-75
2023/01/09 06:43:56;;;;;;;22.80;9.50;;;;;;;-1.04;98.66;98916.29;107217;1267;22547;-75
2023/01/09 06:46:25;;;;;;;22.30;9.10;;;;;;;-1.13;98.36;98915.63;107266;1268;22658;-75
2023/01/09 06:48:53;;;;;;;20.20;9.90;;;;;;;-1.24;97.92;98914.91;107117;1276;22737;-75
2023/01/09 06:51:22;;;;;;;27.30;10.90;;;;;;;-1.32;98.66;98918.14;107189;1276;23173;-75
2023/01/09 06:53:50;;;;;;;29.60;10.70;;;;;;;-1.31;99.49;98919.71;107218;1275;22787;-74
2023/01/09 06:56:19;;;;;;;23.90;10.50;;;;;;;-1.30;99.36;98916.98;107160;1276;22559;-75
2023/01/09 06:58:47;;;;;;;24.20;10.30;;;;;;;-1.37;98.82;98919.57;107285;1275;22527;-75
2023/01/09 07:01:15;;;;;;;24.40;10.30;;;;;;;-1.39;99.16;98919.71;107259;1269;22562;-75
2023/01/09 07:03:44;;;;;;;31.30;12.60;;;;;;;-1.38;99.53;98910.38;107175;1276;22784;-75
2023/01/09 07:06:14;;;;;;;33.30;12.30;;;;;;;-1.37;99.55;98914.64;107164;1277;22515;-75
2023/01/09 07:08:45;;;;;;;30.50;12.10;;;;;;;-1.41;98.65;98919.84;107135;1271;22560;-75
2023/01/09 07:11:15;;;;;;;80.80;28.80;;;;;;;-1.47;98.75;98917.35;107394;1271;24264;-75
2023/01/09 07:13:46;;;;;;;32.80;12.90;;;;;;;-1.45;98.81;98918.40;107310;1272;23780;-75
2023/01/09 07:16:14;;;;;;;28.20;12.10;;;;;;;-1.43;98.63;98913.85;107410;1274;24035;-75
2023/01/09 07:18:48;;;;;;;30.20;11.80;;;;;;;-1.42;98.99;98912.52;107286;1271;25247;-75
2023/01/09 07:21:16;;;;;;;32.70;12.60;;;;;;;-1.41;99.41;98909.64;107425;1271;22542;-76
2023/01/09 07:23:44;;;;;;;29.20;11.50;;;;;;;-1.36;99.22;98906.16;107447;1271;22530;-75
2023/01/09 07:26:13;;;;;;;25.00;10.70;;;;;;;-1.33;99.26;98901.80;107472;1260;22521;-75
2023/01/09 07:28:41;;;;;;;15.40;6.90;;;;;;;-1.27;99.28;98894.95;107412;1269;24211;-76
2023/01/09 07:31:11;;;;;;;18.70;8.00;;;;;;;-1.27;99.21;98898.20;107386;1274;24255;-75
2023/01/09 07:33:40;;;;;;;27.20;10.20;;;;;;;-1.17;99.62;98893.61;107511;1271;22648;-76
2023/01/09 07:36:08;;;;;;;19.50;8.50;;;;;;;-1.08;99.44;98889.00;107316;1271;25227;-75
2023/01/09 07:38:36;;;;;;;19.10;7.90;;;;;;;-1.01;99.51;98893.05;107423;1271;24105;-75
2023/01/09 07:41:04;;;;;;;18.10;8.50;;;;;;;-0.99;99.21;98898.35;107387;1272;25237;-75
2023/01/09 07:43:33;;;;;;;26.90;11.10;;;;;;;-0.95;99.07;98889.74;107408;1277;22526;-75
2023/01/09 07:46:04;;;;;;;21.80;9.00;;;;;;;-0.89;99.26;98888.67;107443;1278;24285;-75
2023/01/09 07:48:32;;;;;;;27.40;10.30;;;;;;;-0.87;98.96;98883.08;107479;1270;23866;-75
2023/01/09 07:51:00;;;;;;;23.40;9.70;;;;;;;-0.91;99.04;98887.61;107599;1276;24689;-76
2023/01/09 07:53:35;;;;;;;20.90;9.20;;;;;;;-0.89;98.79;98890.20;107436;1271;22568;-76
2023/01/09 07:56:04;;;;;;;25.20;9.70;;;;;;;-0.96;98.36;98884.45;107962;1271;24232;-75
2023/01/09 07:58:32;;;;;;;30.10;10.10;;;;;;;-0.95;98.46;98882.77;107526;1277;23369;-76
2023/01/09 08:01:00;;;;;;;23.10;10.20;;;;;;;-0.93;98.70;98877.70;107905;1277;25234;-75
2023/01/09 08:03:29;;;;;;;23.40;10.10;;;;;;;-0.89;98.76;98878.80;107441;1278;23294;-75
2023/01/09 08:05:57;;;;;;;22.50;9.10;;;;;;;-0.95;98.24;98870.19;107858;1271;22561;-76
2023/01/09 08:08:26;;;;;;;21.20;8.80;;;;;;;-1.00;98.60;98871.46;107427;1277;22556;-76
2023/01/09 08:10:57;;;;;;;20.40;9.00;;;;;;;-0.94;99.13;98872.24;107486;1267;23390;-75
2023/01/09 08:13:26;;;;;;;22.20;9.30;;;;;;;-0.90;98.85;98871.28;107335;1267;22522;-75
2023/01/09 08:15:57;;;;;;;21.20;9.10;;;;;;;-0.89;98.85;98863.14;107459;1274;25368;-75
2023/01/09 08:18:25;;;;;;;22.80;9.10;;;;;;;-0.87;98.73;98865.55;107457;1270;24193;-75
2023/01/09 08:20:56;;;;;;;21.40;8.10;;;;;;;-0.85;98.91;98857.92;107454;1274;22544;-75
2023/01/09 08:23:27;;;;;;;14.30;7.00;;;;;;;-0.82;98.76;98854.06;107404;1270;22563;-75
2023/01/09 08:25:59;;;;;;;21.30;8.60;;;;;;;-0.81;98.04;98852.90;107481;1275;24381;-75
2023/01/09 08:28:27;;;;;;;20.40;8.60;;;;;;;-0.82;98.14;98864.98;107314;1278;22640;-76
2023/01/09 08:30:57;;;;;;;26.50;10.80;;;;;;;-0.74;98.53;98865.08;107521;1273;23991;-75
2023/01/09 08:33:26;;;;;;;31.70;12.20;;;;;;;-0.63;98.68;98860.67;107472;1274;22519;-75
2023/01/09 08:35:54;;;;;;;34.70;14.10;;;;;;;-0.52;98.52;98852.67;107391;1278;22603;-75
2023/01/09 08:38:23;;;;;;;43.30;17.00;;;;;;;-0.49;98.47;98854.77;107415;1271;22552;-76
2023/01/09 08:40:54;;;;;;;38.80;14.30;;;;;;;-0.37;98.65;98856.30;107443;1272;27534;-75
2023/01/09 08:49:07;;;;;;;35.60;12.80;;;;;;;-0.12;98.49;98850.17;107447;1271;23455;-75
2023/01/09 08:51:38;;;;;;;36.20;14.30;;;;;;;-0.11;98.56;98844.23;107512;1262;22534;-75
2023/01/09 08:54:06;;;;;;;29.20;13.00;;;;;;;-0.05;98.61;98843.63;107519;1267;22909;-75
2023/01/09 08:56:37;;;;;;;21.90;9.30;;;;;;;-0.07;98.12;98837.30;107472;1277;22554;-75
2023/01/09 08:59:05;;;;;;;24.10;10.00;;;;;;;-0.10;98.06;98834.20;107514;1278;22559;-77
2023/01/09 09:01:33;;;;;;;23.50;9.70;;;;;;;-0.15;97.86;98833.79;107577;1271;26065;-75
2023/01/09 09:04:04;;;;;;;25.40;10.70;;;;;;;-0.11;98.06;98832.81;107401;1273;23905;-75
2023/01/09 09:06:33;;;;;;;28.20;11.70;;;;;;;-0.13;97.97;98832.79;107502;1277;24269;-76
2023/01/09 09:09:05;;;;;;;27.10;11.30;;;;;;;-0.16;97.76;98829.17;107258;1278;23471;-76
2023/01/09 09:11:36;;;;;;;36.40;10.90;;;;;;;-0.16;98.16;98816.76;107474;1272;22654;-74
2023/01/09 09:15:11;;;;;;;25.50;10.00;;;;;;;-0.10;98.32;98804.39;107401;1273;24763;-75
2023/01/09 09:16:53;;;;;;;32.50;12.70;;;;;;;-0.05;98.17;98800.70;109701;1270;22342;-75
2023/01/09 09:19:21;;;;;;;32.80;12.30;;;;;;;-0.03;98.07;98793.92;110102;1271;22866;-76
2023/01/09 09:21:49;;;;;;;28.80;11.50;;;;;;;0.00;97.97;98787.15;110124;1271;22249;-75
2023/01/09 09:24:20;;;;;;;32.50;13.30;;;;;;;0.07;98.26;98791.13;110089;1270;22297;-75
2023/01/09 09:26:49;;;;;;;32.30;12.10;;;;;;;0.15;98.29;98779.13;109001;1270;23064;-75
2023/01/09 09:29:18;;;;;;;28.20;10.70;;;;;;;0.21;97.97;98777.85;110103;1271;22338;-75
2023/01/09 09:31:46;;;;;;;31.70;12.20;;;;;;;0.31;97.87;98779.82;110114;1270;22308;-75
2023/01/09 09:34:15;;;;;;;34.20;10.70;;;;;;;0.43;97.97;98781.83;110190;1262;22179;-75
2023/01/09 09:36:50;;;;;;;28.20;11.50;;;;;;;0.60;98.49;98781.82;108256;1278;23022;-75
2023/01/09 09:39:19;;;;;;;34.70;13.10;;;;;;;0.73;98.34;98786.04;107417;1278;22576;-75
2023/01/09 09:45:57;;;;;;;33.90;11.90;;;;;;;1.12;98.21;98764.02;107546;1278;22541;-76
2023/01/09 09:48:35;;;;;;;23.60;10.50;;;;;;;1.32;98.13;98757.84;107574;1278;22577;-75
2023/01/09 09:51:36;;;;;;;29.10;11.40;;;;;;;1.52;98.09;98757.80;107931;1276;23286;-74
2023/01/09 09:54:13;;;;;;;73.40;24.70;;;;;;;1.61;97.43;98754.26;107821;1278;22991;-75
2023/01/09 09:57:01;;;;;;;40.40;16.60;;;;;;;1.63;97.50;98748.63;107535;1278;22679;-75
2023/01/09 09:59:33;;;;;;;61.70;22.00;;;;;;;1.64;96.86;98738.56;107550;1272;22952;-76
2023/01/09 10:02:22;;;;;;;33.50;14.50;;;;;;;1.67;96.86;98733.45;107563;1278;25337;-75
2023/01/09 10:05:05;;;;;;;27.70;13.10;;;;;;;1.59;95.99;98728.10;107574;1276;22554;-76
2023/01/09 10:07:43;;;;;;;33.40;14.10;;;;;;;1.56;96.26;98725.20;107570;1271;22959;-76
2023/01/09 10:10:34;;;;;;;36.20;14.30;;;;;;;1.62;96.90;98717.52;110063;1271;22360;-76
2023/01/09 10:16:13;;;;;;;44.50;15.40;;;;;;;1.64;96.10;98705.92;110002;1275;22247;-76
2023/01/09 10:18:44;;;;;;;37.00;16.20;;;;;;;1.62;95.54;98698.40;110081;1271;22311;-76
2023/01/09 10:21:20;;;;;;;37.60;14.90;;;;;;;1.61;95.24;98699.76;110095;1274;22378;-75
2023/01/09 10:24:19;;;;;;;34.10;14.70;;;;;;;1.64;95.28;98687.64;110113;1271;23022;-76
2023/01/09 10:26:51;;;;;;;41.70;15.30;;;;;;;1.70;95.48;98684.44;110076;1278;22514;-76
2023/01/09 10:29:35;;;;;;;40.90;16.00;;;;;;;1.77;95.50;98682.05;110005;1277;22196;-76
2023/01/09 10:32:51;;;;;;;43.60;16.80;;;;;;;1.87;95.33;98679.52;110131;1271;22227;-75
2023/01/09 10:35:37;;;;;;;43.10;17.90;;;;;;;1.94;95.39;98677.34;109505;1286;22471;-76
2023/01/09 10:38:21;;;;;;;47.70;17.80;;;;;;;1.90;95.22;98660.57;109631;1283;22328;-76
2023/01/09 10:41:30;;;;;;;100.70;32.80;;;;;;;1.92;95.25;98652.89;109932;1278;22675;-76
2023/01/09 10:44:07;;;;;;;51.30;20.00;;;;;;;2.02;95.65;98647.96;109967;1271;22211;-75
2023/01/09 10:46:42;;;;;;;29.40;12.10;;;;;;;2.12;95.48;98649.68;109980;1274;22193;-76
2023/01/09 10:49:15;;;;;;;34.50;13.70;;;;;;;2.18;95.25;98636.17;110055;1270;22346;-76
2023/01/09 10:51:56;;;;;;;28.00;12.50;;;;;;;2.26;95.16;98621.14;110058;1278;22208;-76
2023/01/09 10:54:27;;;;;;;28.10;12.70;;;;;;;2.37;95.85;98619.44;110159;1272;22228;-75
2023/01/09 10:57:25;;;;;;;33.80;14.10;;;;;;;2.44;96.20;98619.10;110063;1272;22314;-76
2023/01/09 10:59:55;;;;;;;43.50;17.20;;;;;;;2.47;95.34;98610.53;110088;1277;23461;-75
2023/01/09 11:02:28;;;;;;;44.70;17.20;;;;;;;2.48;94.54;98614.65;110036;1271;22323;-76
2023/01/09 11:04:56;;;;;;;40.80;17.20;;;;;;;2.42;93.91;98609.52;110013;1272;22239;-77
2023/01/09 11:07:32;;;;;;;41.20;18.30;;;;;;;2.45;94.32;98601.30;110069;1277;22959;-76
2023/01/09 11:10:04;;;;;;;37.80;17.50;;;;;;;2.39;94.79;98601.13;110035;1278;22286;-76
2023/01/09 11:12:34;;;;;;;39.00;16.90;;;;;;;2.44;94.84;98598.23;109974;1278;22327;-76
2023/01/09 11:15:14;;;;;;;34.40;15.20;;;;;;;2.49;95.21;98593.77;109995;1271;22442;-76
2023/01/09 11:17:43;;;;;;;34.10;16.00;;;;;;;2.57;95.54;98589.66;110065;1272;22994;-76
2023/01/09 11:20:22;;;;;;;32.00;13.90;;;;;;;2.64;95.76;98592.55;110061;1271;22363;-76
2023/01/09 11:22:56;;;;;;;37.10;17.40;;;;;;;2.71;95.46;98589.81;110046;1269;22988;-76
2023/01/09 11:25:27;;;;;;;32.80;14.60;;;;;;;2.79;95.64;98581.93;109993;1268;22310;-76
2023/01/09 11:28:01;;;;;;;36.70;15.10;;;;;;;2.90;95.71;98577.98;110024;1271;22357;-76
2023/01/09 11:30:37;;;;;;;34.90;16.00;;;;;;;2.99;95.64;98573.48;110096;1275;23572;-79
2023/01/09 11:33:19;;;;;;;43.10;19.00;;;;;;;3.08;95.65;98564.05;110066;1277;22316;-76
2023/01/09 11:35:56;;;;;;;35.30;17.60;;;;;;;3.19;95.74;98555.95;110103;1272;22176;-76
2023/01/09 11:38:25;;;;;;;38.90;17.10;;;;;;;3.30;95.59;98558.14;109981;1278;23246;-77
2023/01/09 11:41:00;;;;;;;46.20;19.00;;;;;;;3.39;95.27;98551.58;109988;1275;23135;-76
2023/01/09 11:43:36;;;;;;;55.40;23.70;;;;;;;3.47;95.01;98549.33;110000;1272;22340;-77
2023/01/09 11:46:07;;;;;;;52.40;20.90;;;;;;;3.56;94.81;98549.27;109984;1277;22373;-76
2023/01/09 11:48:39;;;;;;;40.90;18.40;;;;;;;3.61;94.75;98540.33;109984;1271;22290;-77
2023/01/09 11:51:20;;;;;;;43.70;17.40;;;;;;;3.70;94.80;98534.27;109977;1277;22158;-76
2023/01/09 11:54:21;;;;;;;38.50;17.20;;;;;;;3.76;94.38;98532.00;110061;1274;22387;-76
2023/01/09 11:56:50;;;;;;;33.70;14.50;;;;;;;3.82;94.72;98524.25;110024;1270;22447;-76
2023/01/09 11:59:21;;;;;;;38.50;16.00;;;;;;;3.78;94.19;98514.68;109986;1278;22320;-76